createdAt,value
2019-01-26T05:32:11.670Z,1.30
2019-01-26T05:34:40.420Z,1.30
2019-01-26T05:37:08.853Z,1.30
2019-01-26T05:39:37.294Z,1.40
2019-01-26T05:42:05.787Z,1.40
2019-01-26T05:48:15.674Z,1.40
2019-01-26T05:50:44.173Z,1.40
2019-01-26T05:53:12.604Z,1.40
2019-01-26T05:55:41.083Z,1.50
2019-01-26T05:58:09.517Z,1.50
2019-01-26T06:00:38.234Z,1.50
2019-01-26T06:03:07.091Z,1.50
2019-01-26T06:05:35.660Z,1.50
2019-01-26T06:08:04.411Z,1.50
2019-01-26T06:14:01.495Z,1.50
2019-01-26T06:16:29.927Z,1.50
2019-01-26T06:18:58.572Z,1.50
2019-01-26T06:21:27.002Z,1.50
2019-01-26T06:23:55.442Z,1.50
2019-01-26T06:26:23.922Z,1.50
2019-01-26T06:32:33.858Z,1.50
2019-01-26T06:35:02.294Z,1.60
2019-01-26T06:37:30.736Z,1.60
2019-01-26T06:39:59.215Z,1.60
2019-01-26T06:42:27.681Z,1.60
2019-01-26T06:44:56.106Z,1.60
2019-01-26T06:47:24.735Z,1.70
2019-01-26T06:49:53.171Z,1.70
2019-01-26T06:52:21.597Z,1.70
2019-01-26T06:58:18.559Z,1.70
2019-01-26T07:00:46.995Z,1.70
2019-01-26T07:03:15.806Z,1.70
2019-01-26T07:05:49.462Z,1.80
2019-01-26T07:08:18.036Z,1.80
2019-01-26T07:14:15.298Z,1.90
2019-01-26T07:16:43.798Z,1.90
2019-01-26T07:22:40.691Z,2.00
2019-01-26T07:25:09.309Z,2.00
2019-01-26T07:27:38.148Z,2.00
2019-01-26T07:30:12.872Z,2.00
2019-01-26T07:32:41.680Z,2.10
2019-01-26T07:35:10.350Z,2.10
2019-01-26T07:37:39.263Z,2.10
2019-01-26T07:40:20.370Z,2.00
2019-01-26T07:42:48.835Z,2.00
2019-01-26T07:45:17.607Z,2.10
2019-01-26T07:47:46.348Z,2.10
2019-01-26T07:50:17.861Z,2.10
2019-01-26T07:52:46.304Z,2.10
2019-01-26T07:58:43.345Z,2.10
2019-01-26T08:01:11.790Z,2.20
2019-01-26T08:06:57.237Z,2.30
2019-01-26T08:09:25.672Z,2.30
2019-01-26T08:15:29.021Z,2.30
2019-01-26T08:17:57.901Z,2.30
2019-01-26T08:20:26.567Z,2.30
2019-01-26T08:22:55.058Z,2.30
2019-01-26T08:25:23.976Z,2.30
2019-01-26T08:27:52.475Z,2.30
2019-01-26T08:33:49.794Z,2.30
2019-01-26T08:36:18.448Z,2.30
2019-01-26T08:38:46.957Z,2.40
2019-01-26T08:41:15.387Z,2.40
2019-01-26T08:47:00.422Z,2.40
2019-01-26T08:49:28.878Z,2.50
2019-01-26T08:51:57.307Z,2.50
2019-01-26T08:54:26.090Z,2.50
2019-01-26T08:56:54.978Z,2.60
2019-01-26T09:03:06.919Z,2.70
2019-01-26T09:05:36.990Z,2.70
2019-01-26T09:08:06.087Z,2.80
2019-01-26T09:10:34.620Z,2.80
2019-01-26T09:13:03.118Z,2.80
2019-01-26T09:15:31.547Z,2.80
2019-01-26T09:18:00.011Z,2.90
2019-01-26T09:20:28.436Z,2.90
2019-01-26T09:22:56.869Z,2.90
2019-01-26T09:25:25.528Z,2.90
2019-01-26T09:27:54.299Z,3.00
2019-01-26T09:30:22.870Z,2.80
2019-01-26T09:32:51.706Z,2.90
2019-01-26T09:35:20.129Z,2.90
2019-01-26T09:37:48.582Z,2.80
2019-01-26T09:43:46.262Z,2.80
2019-01-26T09:46:15.067Z,2.70
2019-01-26T09:48:46.329Z,2.80
2019-01-26T09:51:13.919Z,2.80
2019-01-26T09:53:43.030Z,2.80
2019-01-26T09:56:11.458Z,2.80
2019-01-26T10:02:08.932Z,2.80
2019-01-26T10:08:06.193Z,2.80
2019-01-26T10:10:34.762Z,2.70
2019-01-26T10:13:03.409Z,2.80
2019-01-26T10:15:32.162Z,2.90
2019-01-26T10:18:00.847Z,2.90
2019-01-26T10:20:38.114Z,2.90
2019-01-26T10:23:06.728Z,2.90
2019-01-26T10:25:35.242Z,2.90
2019-01-26T10:28:04.848Z,3.00
2019-01-26T10:34:15.131Z,3.00
2019-01-26T10:36:47.843Z,3.00
2019-01-26T10:39:17.219Z,3.00
2019-01-26T10:41:50.355Z,3.10
2019-01-26T10:48:00.140Z,3.20
2019-01-26T10:50:28.565Z,3.30
2019-01-26T10:56:25.761Z,3.30
2019-01-26T10:58:54.302Z,3.40
2019-01-26T11:05:05.020Z,3.40
2019-01-26T11:07:33.799Z,3.50
2019-01-26T11:10:02.691Z,3.60
2019-01-26T12:10:46.272Z,4.10
2019-01-26T12:16:43.932Z,4.20
2019-01-26T12:19:12.395Z,4.20
2019-01-26T12:21:40.906Z,4.20
2019-01-26T12:27:37.678Z,4.30
2019-01-26T12:30:14.703Z,4.40
2019-01-26T12:36:24.795Z,4.50
2019-01-26T12:38:53.366Z,4.40
2019-01-26T12:41:21.802Z,4.40
2019-01-26T12:47:18.710Z,4.50
2019-01-26T12:53:15.702Z,4.50
2019-01-26T12:55:44.122Z,4.40
2019-01-26T12:58:12.707Z,4.50
2019-01-26T13:00:41.281Z,4.50
2019-01-26T13:03:09.713Z,4.60
2019-01-26T13:05:38.183Z,4.60
2019-01-26T13:11:48.051Z,4.50
2019-01-26T13:14:16.842Z,4.50
2019-01-26T13:16:45.283Z,4.50
2019-01-26T13:19:13.806Z,4.50
2019-01-26T13:21:42.253Z,4.50
2019-01-26T13:24:10.984Z,4.50
2019-01-26T13:26:39.595Z,4.50
2019-01-26T13:29:08.262Z,4.60
2019-01-26T13:31:36.687Z,4.60
2019-01-26T13:37:34.965Z,4.50
2019-01-26T13:40:06.054Z,4.60
2019-01-26T13:42:34.482Z,4.60
2019-01-26T13:45:02.942Z,4.70
2019-01-26T13:47:37.674Z,4.60
2019-01-26T13:50:01.587Z,4.70
2019-01-26T13:52:30.011Z,4.80
2019-01-26T13:54:58.823Z,4.80
2019-01-26T13:57:27.257Z,4.80
2019-01-26T14:03:24.614Z,4.90
2019-01-26T14:05:53.756Z,5.00
2019-01-26T14:08:22.190Z,5.00
2019-01-26T14:10:50.623Z,4.90
2019-01-26T14:13:19.159Z,4.90
2019-01-26T14:15:47.895Z,4.90
2019-01-26T14:18:16.338Z,4.90
2019-01-26T14:20:45.177Z,4.80
2019-01-26T14:23:13.776Z,4.80
2019-01-26T14:29:11.099Z,4.80
2019-01-26T14:31:39.667Z,4.80
2019-01-26T14:37:49.788Z,4.70
2019-01-26T14:40:18.451Z,4.80
2019-01-26T14:42:53.958Z,4.80
2019-01-26T14:45:18.838Z,4.80
2019-01-26T14:47:47.260Z,4.90
2019-01-26T14:50:17.229Z,4.90
2019-01-26T14:52:46.049Z,4.90
2019-01-26T14:55:20.313Z,5.00
2019-01-26T14:57:48.746Z,5.00
2019-01-26T15:03:45.919Z,5.10
2019-01-26T15:06:14.712Z,5.10
2019-01-26T15:08:43.247Z,5.20
2019-01-26T15:14:52.687Z,5.20
2019-01-26T15:17:21.128Z,5.20
2019-01-26T15:19:49.566Z,5.20
2019-01-26T15:22:18.099Z,5.20
2019-01-26T15:24:46.867Z,5.20
2019-01-26T15:27:15.467Z,5.10
2019-01-26T15:29:43.939Z,5.10
2019-01-26T15:32:12.374Z,5.10
2019-01-26T15:34:40.807Z,5.10
2019-01-26T15:37:09.695Z,5.00
2019-01-26T15:39:38.130Z,5.00
2019-01-26T15:45:38.418Z,5.00
2019-01-26T15:48:07.334Z,5.00
2019-01-26T15:50:35.933Z,5.00
2019-01-26T15:56:33.538Z,5.00
2019-01-26T15:59:02.005Z,5.00
2019-01-26T16:01:30.506Z,5.00
2019-01-26T16:03:58.947Z,5.00
2019-01-26T16:06:27.488Z,4.90
2019-01-26T16:08:55.911Z,4.90
2019-01-26T16:11:24.345Z,4.90
2019-01-26T17:11:44.107Z,4.40
2019-01-26T17:14:13.046Z,4.30
2019-01-26T17:16:41.859Z,4.30
2019-01-26T17:19:10.654Z,4.30
2019-01-26T17:21:39.099Z,4.30
2019-01-26T17:24:07.529Z,4.30
2019-01-26T17:26:36.068Z,4.30
2019-01-26T17:29:04.566Z,4.30
2019-01-26T17:31:33.075Z,4.30
2019-01-26T17:34:01.915Z,4.30
2019-01-26T17:36:30.349Z,4.30
2019-01-26T17:38:58.773Z,4.30
2019-01-26T17:41:27.756Z,4.30
2019-01-26T17:47:37.618Z,4.30
2019-01-26T17:50:09.472Z,4.20
2019-01-26T17:52:40.486Z,4.20
2019-01-26T17:55:10.847Z,4.20
2019-01-26T17:57:40.004Z,4.20
2019-01-26T18:00:18.055Z,4.20
2019-01-26T18:02:46.558Z,4.20
2019-01-26T18:05:15.195Z,4.20
2019-01-26T18:07:44.026Z,4.20
2019-01-26T18:10:15.558Z,4.20
2019-01-26T18:12:44.155Z,4.10
2019-01-26T18:15:14.828Z,4.10
2019-01-26T18:17:43.394Z,4.10
2019-01-26T18:23:40.583Z,4.00
2019-01-26T18:26:09.044Z,4.00
2019-01-26T18:28:37.758Z,4.00
2019-01-26T18:31:06.191Z,4.00
2019-01-26T18:33:34.650Z,4.10
2019-01-26T18:36:03.086Z,4.00
2019-01-26T18:38:31.506Z,4.10
2019-01-26T18:41:00.112Z,4.10
2019-01-26T18:43:28.541Z,4.10
2019-01-26T18:45:57.038Z,4.10
2019-01-26T18:48:25.570Z,4.10
2019-01-26T18:50:56.289Z,4.10
2019-01-26T18:53:24.157Z,4.10
2019-01-26T18:55:52.782Z,4.20
2019-01-26T18:58:21.208Z,4.30
2019-01-26T19:00:49.710Z,4.20
2019-01-26T19:03:24.227Z,4.20
2019-01-26T19:05:55.109Z,4.30
2019-01-26T19:11:52.154Z,4.20
2019-01-26T19:14:20.591Z,4.10
2019-01-26T19:16:49.231Z,4.10
2019-01-26T19:19:17.660Z,4.10
2019-01-26T19:21:46.090Z,4.10
2019-01-26T19:24:14.846Z,4.00
2019-01-26T19:26:43.270Z,4.10
2019-01-26T19:29:11.774Z,4.10
2019-01-26T19:31:40.602Z,4.20
2019-01-26T19:34:09.046Z,4.20
2019-01-26T19:36:37.613Z,4.20
2019-01-26T19:39:07.435Z,4.20
2019-01-26T19:41:35.871Z,4.30
2019-01-26T19:44:04.647Z,4.30
2019-01-26T19:46:34.122Z,4.40
2019-01-26T19:49:02.556Z,4.40
2019-01-26T19:51:31.055Z,4.30
2019-01-26T19:53:59.516Z,4.30
2019-01-26T19:56:27.947Z,4.30
2019-01-26T19:58:56.376Z,4.30
2019-01-26T20:01:24.834Z,4.40
2019-01-26T20:03:55.124Z,4.30
2019-01-26T20:06:24.563Z,4.40
2019-01-26T20:08:53.059Z,4.30
2019-01-26T20:11:21.632Z,4.30
2019-01-26T20:13:51.661Z,4.20
2019-01-26T20:16:20.118Z,4.20
2019-01-26T20:18:48.542Z,4.30
2019-01-26T20:21:17.744Z,4.30
2019-01-26T20:23:46.412Z,4.40
2019-01-26T20:26:14.842Z,4.50
2019-01-26T20:28:43.350Z,4.50
